Time;durP1;ratioP1;P1;durP2;ratioP2;P2;SDS_P1;SDS_P2;PMS_P1;PMS_P2;Temp;Humidity;BMP_temperature;BMP_pressure;BME280_temperature;BME280_humidity;BME280_pressure;Samples;Min_cycle;Max_cycle;Signal;HPM_P1;HPM_P2
2022/07/02 00:00:55;;;;;;;4.78;2.08;;;;;;;16.48;67.07;102195.44;5101580;28;20031;-54
2022/07/02 00:03:29;;;;;;;4.13;1.90;;;;;;;16.49;66.56;102185.06;5101573;28;20043;-54
2022/07/02 00:05:59;;;;;;;3.58;1.70;;;;;;;16.44;66.90;102189.31;5103540;28;20055;-50
2022/07/02 00:08:27;;;;;;;6.38;1.80;;;;;;;16.45;67.16;102197.97;5103851;28;20023;-54
2022/07/02 00:10:54;;;;;;;5.38;1.80;;;;;;;16.46;67.56;102197.13;5103991;28;20024;-55
2022/07/02 00:13:20;;;;;;;6.90;2.20;;;;;;;16.41;67.58;102198.72;5102700;28;20039;-48
2022/07/02 00:15:46;;;;;;;5.05;1.80;;;;;;;16.36;66.82;102204.66;5103745;28;20035;-54
2022/07/02 00:18:12;;;;;;;4.35;2.00;;;;;;;16.34;67.36;102195.09;5102060;28;20062;-55
2022/07/02 00:20:40;;;;;;;4.28;2.00;;;;;;;16.26;67.38;102187.13;5103447;28;20038;-52
2022/07/02 00:23:06;;;;;;;4.47;1.80;;;;;;;16.28;67.35;102198.41;5101711;28;20033;-49
2022/07/02 00:25:53;;;;;;;5.03;1.98;;;;;;;16.29;67.18;102196.69;5101431;28;20031;-48
2022/07/02 00:28:22;;;;;;;7.72;2.17;;;;;;;16.21;67.37;102190.44;5099733;28;20027;-50
2022/07/02 00:30:47;;;;;;;5.65;1.88;;;;;;;16.21;67.29;102190.44;5100961;28;20074;-54
2022/07/02 00:33:14;;;;;;;4.80;2.00;;;;;;;16.20;67.49;102199.03;5101347;28;20041;-53
2022/07/02 00:35:40;;;;;;;4.20;1.90;;;;;;;16.15;67.90;102201.53;5100311;28;20045;-53
2022/07/02 00:38:07;;;;;;;5.40;2.20;;;;;;;16.10;68.38;102192.75;5101807;28;20031;-54
2022/07/02 00:40:33;;;;;;;5.68;1.95;;;;;;;16.00;68.53;102196.78;5103245;28;20073;-55
2022/07/02 00:42:59;;;;;;;5.18;2.08;;;;;;;15.97;69.17;102201.03;5082555;28;20035;-52
2022/07/02 00:45:26;;;;;;;7.47;2.10;;;;;;;15.97;69.25;102203.63;5101936;28;20042;-50
2022/07/02 00:47:54;;;;;;;4.95;2.20;;;;;;;15.97;69.87;102201.03;5102297;28;20444;-55
2022/07/02 00:50:21;;;;;;;5.03;1.97;;;;;;;15.95;68.77;102197.50;5099887;28;20028;-55
2022/07/02 00:52:47;;;;;;;6.43;2.00;;;;;;;15.94;68.26;102191.44;5102111;28;20364;-54
2022/07/02 00:55:13;;;;;;;4.57;2.00;;;;;;;15.98;68.38;102187.22;5101964;28;20127;-51
2022/07/02 00:57:38;;;;;;;5.32;1.80;;;;;;;15.98;68.90;102187.22;5102737;28;20457;-55
2022/07/02 01:00:06;;;;;;;3.33;2.05;;;;;;;15.95;68.72;102188.00;5102402;28;20035;-53
2022/07/02 01:02:34;;;;;;;4.93;2.30;;;;;;;15.86;68.94;102177.38;5101484;28;20531;-50
2022/07/02 01:05:00;;;;;;;5.53;2.20;;;;;;;15.81;68.34;102185.03;5099041;28;20057;-50
2022/07/02 01:07:27;;;;;;;4.05;2.03;;;;;;;15.73;69.42;102185.69;5099945;27;20032;-53
2022/07/02 01:12:41;;;;;;;5.60;2.50;;;;;;;15.84;69.01;102188.56;5099085;28;20126;-49
2022/07/02 01:15:07;;;;;;;4.22;2.17;;;;;;;15.82;69.28;102181.59;5084713;28;20605;-54
2022/07/02 01:17:33;;;;;;;6.80;2.60;;;;;;;15.81;68.48;102174.66;5103284;28;20040;-54
2022/07/02 01:19:58;;;;;;;4.32;2.38;;;;;;;15.75;68.67;102178.81;5103287;28;20061;-52
2022/07/02 01:22:25;;;;;;;7.45;2.65;;;;;;;15.77;69.18;102180.63;5099138;28;20372;-53
2022/07/02 01:24:53;;;;;;;6.88;2.47;;;;;;;15.70;69.36;102175.19;5101845;28;20059;-50
2022/07/02 01:27:20;;;;;;;6.53;2.67;;;;;;;15.67;69.00;102180.31;5104100;27;20042;-49
2022/07/02 01:29:46;;;;;;;5.85;2.60;;;;;;;15.65;69.81;102177.69;5099354;27;20069;-54
2022/07/02 01:32:12;;;;;;;4.18;2.42;;;;;;;15.67;69.90;102175.13;5099252;27;20446;-54
2022/07/02 01:34:40;;;;;;;4.55;2.75;;;;;;;15.67;69.35;102176.00;5099819;28;20039;-54
2022/07/02 01:37:13;;;;;;;6.75;2.38;;;;;;;15.70;70.07;102182.97;5098405;28;20030;-51
2022/07/02 01:39:41;;;;;;;6.55;2.75;;;;;;;15.64;69.58;102170.72;5101050;27;20109;-54
2022/07/02 01:42:07;;;;;;;6.25;2.70;;;;;;;15.67;69.22;102185.50;5101883;27;20023;-55
2022/07/02 01:44:35;;;;;;;6.07;2.80;;;;;;;15.71;70.20;102179.53;5105754;28;20766;-55
2022/07/02 01:47:03;;;;;;;6.93;2.90;;;;;;;15.68;69.65;102189.84;5100467;28;20061;-53
2022/07/02 01:49:29;;;;;;;7.93;3.17;;;;;;;15.73;69.51;102188.25;5103699;28;20421;-50
2022/07/02 01:51:54;;;;;;;4.82;2.92;;;;;;;15.68;69.65;102189.84;5085280;28;20024;-51
2022/07/02 01:54:20;;;;;;;8.20;2.55;;;;;;;15.72;69.82;102189.97;5103659;28;20067;-53
2022/07/02 01:56:45;;;;;;;5.25;2.72;;;;;;;15.67;70.63;102181.19;5098728;28;20024;-53
2022/07/02 01:59:11;;;;;;;6.63;2.60;;;;;;;15.59;70.31;102180.03;5102944;28;20089;-53
2022/07/02 02:01:36;;;;;;;6.40;2.90;;;;;;;15.66;70.79;102176.84;5104199;28;20173;-55
2022/07/02 02:04:02;;;;;;;6.35;2.60;;;;;;;15.68;71.00;102176.88;5098722;28;20039;-51
2022/07/02 02:06:28;;;;;;;6.35;2.50;;;;;;;15.66;70.02;102181.16;5101979;28;20808;-55
2022/07/02 02:08:53;;;;;;;5.05;2.70;;;;;;;15.64;70.13;102182.81;5101506;28;20020;-55
2022/07/02 02:11:19;;;;;;;9.15;2.95;;;;;;;15.66;70.83;102179.44;5103114;28;20038;-55
2022/07/02 02:13:45;;;;;;;10.15;3.00;;;;;;;15.64;69.84;102175.91;5102120;28;20030;-49
2022/07/02 02:16:10;;;;;;;5.43;2.40;;;;;;;15.63;70.52;102173.28;5104249;27;20036;-54
2022/07/02 02:18:36;;;;;;;6.28;2.70;;;;;;;15.65;71.12;102171.59;5081219;28;20121;-53
2022/07/02 02:21:01;;;;;;;7.95;2.67;;;;;;;15.61;70.57;102165.44;5104942;27;20541;-52
2022/07/02 02:23:26;;;;;;;7.47;2.65;;;;;;;15.63;70.68;102168.09;5101559;28;20531;-53
2022/07/02 02:25:52;;;;;;;5.68;2.58;;;;;;;15.56;70.19;102169.59;5102111;28;20039;-53
2022/07/02 02:28:17;;;;;;;7.78;3.00;;;;;;;15.55;70.46;102173.91;5099783;28;20030;-51
2022/07/02 02:30:42;;;;;;;6.15;2.50;;;;;;;15.54;70.27;102171.28;5100641;28;20016;-54
2022/07/02 02:33:08;;;;;;;6.05;3.10;;;;;;;15.52;70.83;102175.53;5102835;28;20443;-55
2022/07/02 02:35:33;;;;;;;6.75;2.85;;;;;;;15.52;70.83;102170.34;5100195;28;20058;-54
2022/07/02 02:37:58;;;;;;;5.15;2.35;;;;;;;15.55;70.40;102179.09;5102306;28;20042;-54
2022/07/02 02:40:24;;;;;;;4.45;2.30;;;;;;;15.52;70.92;102178.13;5097666;28;20477;-52
2022/07/02 02:42:49;;;;;;;5.65;2.78;;;;;;;15.46;70.36;102176.22;5100445;28;20035;-54
2022/07/02 02:45:15;;;;;;;3.75;2.55;;;;;;;15.56;70.52;102179.97;5100822;28;20023;-54
2022/07/02 02:47:40;;;;;;;4.10;2.38;;;;;;;15.55;71.15;102184.28;5101821;28;20031;-55
2022/07/02 02:50:06;;;;;;;6.15;2.42;;;;;;;15.56;71.46;102174.78;5083262;28;20058;-54
2022/07/02 02:52:31;;;;;;;6.20;2.15;;;;;;;15.54;70.89;102169.56;5105447;27;20088;-54
2022/07/02 02:54:57;;;;;;;6.43;2.30;;;;;;;15.53;70.83;102180.78;5099236;28;20280;-54
2022/07/02 02:57:22;;;;;;;4.70;2.28;;;;;;;15.55;71.26;102183.41;5101598;28;20532;-54
2022/07/02 02:59:48;;;;;;;4.78;2.42;;;;;;;15.55;70.75;102181.69;5100786;28;20039;-51
2022/07/02 03:02:13;;;;;;;4.22;2.42;;;;;;;15.52;70.98;102191.97;5100049;28;20027;-48
2022/07/02 03:04:38;;;;;;;5.03;2.28;;;;;;;15.51;70.90;102187.59;5101712;28;20438;-55
2022/07/02 03:07:04;;;;;;;4.38;2.30;;;;;;;15.45;70.46;102189.16;5083229;28;20463;-52
2022/07/02 03:09:29;;;;;;;4.63;2.33;;;;;;;15.41;70.83;102187.28;5102058;28;20031;-55
2022/07/02 03:11:55;;;;;;;4.50;2.30;;;;;;;15.42;70.73;102189.06;5101511;28;20023;-51
2022/07/02 03:14:20;;;;;;;6.80;2.67;;;;;;;15.41;71.04;102193.38;5101796;28;20027;-55
2022/07/02 03:16:45;;;;;;;6.65;2.38;;;;;;;15.42;70.77;102189.06;5100435;28;20031;-55
2022/07/02 03:19:11;;;;;;;7.30;2.60;;;;;;;15.39;71.19;102188.97;5102075;28;20058;-52
2022/07/02 03:21:36;;;;;;;6.93;2.30;;;;;;;15.33;71.21;102194.84;5102465;28;20024;-53
2022/07/02 03:24:01;;;;;;;5.90;2.50;;;;;;;15.31;71.44;102196.53;5099861;28;20035;-50
2022/07/02 03:26:27;;;;;;;6.22;2.63;;;;;;;15.31;71.58;102198.25;5102600;28;20047;-54
2022/07/02 03:28:52;;;;;;;6.03;2.40;;;;;;;15.30;72.35;102202.56;5099770;28;20032;-55
2022/07/02 03:31:17;;;;;;;6.18;2.90;;;;;;;15.28;71.42;102206.78;5101855;28;20088;-55
2022/07/02 03:33:43;;;;;;;8.30;3.05;;;;;;;15.31;71.04;102206.91;5101983;28;20085;-52
2022/07/02 03:36:11;;;;;;;3.92;2.25;;;;;;;15.30;71.14;102210.31;5099513;28;20028;-55
2022/07/02 03:38:37;;;;;;;5.30;2.23;;;;;;;15.32;71.79;102213.81;5081188;28;20364;-53
2022/07/02 03:41:02;;;;;;;6.43;2.80;;;;;;;15.33;71.49;102217.28;5097511;28;20089;-52
2022/07/02 03:43:28;;;;;;;7.15;2.65;;;;;;;15.33;71.23;102222.47;5105645;28;20080;-54
2022/07/02 03:45:53;;;;;;;5.35;2.55;;;;;;;15.35;70.54;102220.81;5099483;28;20035;-54
2022/07/02 03:48:18;;;;;;;5.85;2.50;;;;;;;15.35;71.56;102215.63;5098614;28;20031;-54
2022/07/02 03:50:44;;;;;;;6.22;2.95;;;;;;;15.34;71.61;102219.94;5100972;28;20444;-54
2022/07/02 03:53:10;;;;;;;5.70;2.42;;;;;;;15.36;71.40;102212.22;5101929;28;20027;-54
2022/07/02 03:55:35;;;;;;;7.45;2.80;;;;;;;15.37;71.39;102214.84;5102335;28;20483;-54
2022/07/02 03:58:01;;;;;;;6.55;2.70;;;;;;;15.34;72.13;102209.56;5098268;28;20078;-47
2022/07/02 04:00:26;;;;;;;5.72;2.55;;;;;;;15.34;71.86;102204.38;5098774;28;20435;-54
2022/07/02 04:02:52;;;;;;;5.70;2.50;;;;;;;15.37;71.72;102213.97;5100943;28;20112;-53
2022/07/02 04:05:17;;;;;;;6.65;2.70;;;;;;;15.36;72.22;102220.88;5100455;28;20027;-54
2022/07/02 04:07:43;;;;;;;4.35;2.60;;;;;;;15.36;72.50;102220.00;5103177;28;20031;-53
2022/07/02 04:10:09;;;;;;;8.15;2.70;;;;;;;15.35;72.60;102225.97;5100298;28;20029;-54
2022/07/02 04:12:34;;;;;;;6.47;2.60;;;;;;;15.38;72.22;102221.78;5103639;28;20043;-55
2022/07/02 04:15:00;;;;;;;6.43;2.63;;;;;;;15.45;72.36;102220.25;5099997;28;20042;-54
2022/07/02 04:17:25;;;;;;;4.10;2.58;;;;;;;15.47;72.19;102222.06;5102546;28;20028;-54
2022/07/02 04:19:50;;;;;;;6.07;2.90;;;;;;;15.47;72.32;102215.97;5100274;28;20048;-54
2022/07/02 04:22:16;;;;;;;6.13;2.45;;;;;;;15.46;71.32;102219.41;5100900;28;20098;-51
2022/07/02 04:24:41;;;;;;;7.28;2.97;;;;;;;15.45;71.66;102221.13;5102537;28;20035;-50
2022/07/02 04:27:07;;;;;;;8.25;2.63;;;;;;;15.48;71.13;102215.19;5101708;28;20039;-54
2022/07/02 04:29:32;;;;;;;4.25;2.10;;;;;;;15.44;71.20;102218.50;5103219;28;20056;-54
2022/07/02 04:31:57;;;;;;;7.03;2.80;;;;;;;15.43;71.83;102224.53;5101592;28;20032;-55
2022/07/02 04:34:23;;;;;;;5.88;2.35;;;;;;;15.46;71.26;102220.28;5103366;27;20032;-51
2022/07/02 04:36:48;;;;;;;4.65;2.35;;;;;;;15.48;71.68;102222.94;5104375;28;20114;-55
2022/07/02 04:39:13;;;;;;;8.13;2.85;;;;;;;15.50;71.29;102226.47;5099158;28;20658;-54
2022/07/02 04:41:39;;;;;;;4.32;2.80;;;;;;;15.49;71.22;102223.00;5100955;28;20559;-55
2022/07/02 04:44:04;;;;;;;4.78;2.50;;;;;;;15.52;71.20;102223.06;5106066;28;20164;-55
2022/07/02 04:46:30;;;;;;;5.05;2.50;;;;;;;15.59;71.14;102224.13;5086954;28;20073;-51
2022/07/02 04:48:55;;;;;;;5.22;2.55;;;;;;;15.62;71.15;102223.34;5100439;28;20157;-54
2022/07/02 04:51:21;;;;;;;6.53;2.40;;;;;;;15.65;70.17;102220.88;5105089;28;20051;-53
2022/07/02 04:53:47;;;;;;;5.13;2.20;;;;;;;15.68;70.46;102223.56;5103252;28;20098;-54
2022/07/02 04:56:12;;;;;;;4.65;2.20;;;;;;;15.72;70.12;102218.50;5103154;28;20126;-54
2022/07/02 04:58:38;;;;;;;5.97;2.33;;;;;;;15.75;70.74;102218.59;5104580;28;20458;-52
2022/07/02 05:01:03;;;;;;;7.53;2.70;;;;;;;15.79;71.42;102227.34;5102888;28;20031;-51
2022/07/02 05:03:28;;;;;;;5.82;2.28;;;;;;;15.84;70.28;102222.28;5102700;28;20081;-54
2022/07/02 05:05:54;;;;;;;9.00;2.42;;;;;;;15.89;70.27;102229.34;5103593;28;20128;-55
2022/07/02 05:08:24;;;;;;;4.15;2.40;;;;;;;15.90;70.27;102222.47;5104235;28;20534;-54
2022/07/02 05:10:49;;;;;;;4.90;2.42;;;;;;;15.98;70.41;102221.81;5104370;28;20507;-53
2022/07/02 05:13:15;;;;;;;3.35;2.10;;;;;;;16.01;69.04;102224.47;5105263;28;20066;-54
2022/07/02 05:15:40;;;;;;;6.20;2.40;;;;;;;16.04;69.08;102226.31;5103778;28;20521;-55
2022/07/02 05:18:06;;;;;;;5.43;2.28;;;;;;;16.08;68.40;102226.44;5105206;28;20024;-54
2022/07/02 05:20:31;;;;;;;6.25;2.03;;;;;;;16.23;68.92;102231.16;5103668;28;20039;-55
2022/07/02 05:22:56;;;;;;;4.22;2.03;;;;;;;16.28;68.44;102228.69;5107414;27;20030;-55
2022/07/02 05:25:22;;;;;;;4.85;2.22;;;;;;;16.33;67.92;102233.16;5109228;27;20042;-55
2022/07/02 05:27:47;;;;;;;7.47;2.05;;;;;;;16.35;68.39;102228.88;5105687;28;20115;-54
2022/07/02 05:30:13;;;;;;;6.95;1.92;;;;;;;16.35;69.05;102228.88;5103322;28;20048;-53
2022/07/02 05:32:38;;;;;;;5.32;1.85;;;;;;;16.42;68.48;102234.22;5105203;28;20035;-54
2022/07/02 05:35:03;;;;;;;7.22;2.00;;;;;;;16.48;68.48;102226.59;5105623;27;20084;-54
2022/07/02 05:37:29;;;;;;;6.97;1.60;;;;;;;16.60;68.29;102230.38;5088713;28;20028;-54
2022/07/02 05:39:54;;;;;;;4.50;1.60;;;;;;;16.71;68.11;102235.00;5100312;27;20050;-54
2022/07/02 05:42:19;;;;;;;7.03;1.60;;;;;;;16.80;68.05;102236.09;5099397;28;20036;-52
2022/07/02 05:44:45;;;;;;;4.60;1.50;;;;;;;16.90;67.01;102242.38;5100834;28;20118;-54
2022/07/02 05:47:10;;;;;;;3.13;1.60;;;;;;;16.98;66.67;102230.44;5099543;28;20065;-55
2022/07/02 05:49:36;;;;;;;5.45;1.52;;;;;;;17.09;65.99;102239.38;5102847;28;20055;-49
2022/07/02 05:52:01;;;;;;;3.28;1.40;;;;;;;17.16;65.39;102233.47;5105307;28;20085;-54
2022/07/02 05:54:27;;;;;;;5.78;1.63;;;;;;;17.30;65.04;102238.13;5104900;28;21491;-52
2022/07/02 05:56:52;;;;;;;4.22;1.40;;;;;;;17.37;64.92;102234.81;5105641;28;20043;-50
2022/07/02 05:59:17;;;;;;;4.35;1.48;;;;;;;17.46;64.71;102239.31;5105549;28;20077;-51
2022/07/02 06:01:43;;;;;;;4.72;1.63;;;;;;;17.54;64.17;102243.88;5102766;28;20034;-55
2022/07/02 06:04:08;;;;;;;4.13;1.45;;;;;;;17.63;64.50;102244.03;5103268;28;20043;-54
2022/07/02 06:09:17;;;;;;;4.88;1.50;;;;;;;17.80;63.31;102251.34;5106357;28;20042;-55
2022/07/02 06:11:43;;;;;;;4.15;1.48;;;;;;;17.86;62.41;102241.06;5105899;28;20024;-55
2022/07/02 06:14:08;;;;;;;4.82;1.30;;;;;;;17.95;61.99;102236.03;5106672;27;20392;-54
2022/07/02 06:16:33;;;;;;;6.38;1.50;;;;;;;18.06;61.70;102239.72;5101945;27;20028;-55
2022/07/02 06:18:59;;;;;;;3.38;1.60;;;;;;;18.12;61.39;102239.84;5106904;27;20060;-55
2022/07/02 06:21:24;;;;;;;6.45;1.60;;;;;;;18.23;61.98;102242.66;5104488;28;20042;-55
2022/07/02 06:23:49;;;;;;;3.85;1.50;;;;;;;18.31;61.44;102241.06;5106995;28;20023;-55
2022/07/02 06:26:15;;;;;;;4.97;1.63;;;;;;;18.40;61.07;102241.25;5103494;28;20035;-51
2022/07/02 06:28:40;;;;;;;5.20;1.70;;;;;;;18.46;61.22;102240.47;5104443;28;20038;-54
2022/07/02 06:31:05;;;;;;;2.67;1.30;;;;;;;18.69;60.77;102241.78;5089726;28;20032;-55
2022/07/02 06:33:31;;;;;;;6.93;1.67;;;;;;;18.67;59.23;102247.78;5105116;28;20055;-54
2022/07/02 06:35:57;;;;;;;5.35;1.75;;;;;;;18.79;59.60;102253.22;5108679;27;20042;-55
2022/07/02 06:38:22;;;;;;;3.92;1.40;;;;;;;18.93;58.82;102259.53;5107746;28;20070;-52
2022/07/02 06:40:47;;;;;;;3.72;1.10;;;;;;;19.07;59.09;102251.91;5107003;28;20111;-52
2022/07/02 06:43:13;;;;;;;4.05;1.10;;;;;;;19.14;57.30;102247.66;5102385;28;20813;-55
2022/07/02 06:45:38;;;;;;;6.50;1.58;;;;;;;19.09;58.92;102252.81;5103695;28;20035;-54
2022/07/02 06:48:04;;;;;;;4.55;0.98;;;;;;;19.03;57.61;102250.97;5104033;28;20906;-52
2022/07/02 06:50:29;;;;;;;3.75;0.80;;;;;;;19.01;56.67;102252.69;5082805;28;20035;-52
2022/07/02 06:52:55;;;;;;;5.40;1.15;;;;;;;19.00;57.36;102255.28;5099230;28;20057;-56
2022/07/02 06:55:20;;;;;;;3.83;1.25;;;;;;;19.02;58.86;102257.06;5105779;28;20034;-59
2022/07/02 06:57:49;;;;;;;6.03;1.10;;;;;;;19.03;58.24;102250.97;5103223;28;20039;-58
2022/07/02 07:00:15;;;;;;;5.50;1.02;;;;;;;19.10;57.07;102249.34;5086588;28;20412;-56
2022/07/02 07:02:41;;;;;;;2.15;0.90;;;;;;;19.22;56.08;102244.31;5100131;28;20028;-57
2022/07/02 07:05:07;;;;;;;4.45;0.93;;;;;;;19.37;55.17;102246.28;5101500;28;20024;-56
2022/07/02 07:07:32;;;;;;;4.38;0.93;;;;;;;19.52;54.53;102246.47;5102927;28;20035;-57
2022/07/02 07:09:57;;;;;;;4.07;1.17;;;;;;;19.60;55.13;102246.63;5099853;28;20027;-57
2022/07/02 07:12:23;;;;;;;2.00;0.70;;;;;;;19.69;53.92;102254.53;5106499;27;20023;-58
2022/07/02 07:14:48;;;;;;;2.75;0.75;;;;;;;19.74;52.93;102241.56;5103919;28;20035;-58
2022/07/02 07:17:14;;;;;;;3.00;0.57;;;;;;;19.88;52.61;102246.94;5103795;28;20027;-58
2022/07/02 07:19:40;;;;;;;2.33;0.80;;;;;;;19.99;52.73;102246.19;5086162;28;20063;-57
2022/07/02 07:22:05;;;;;;;2.78;0.73;;;;;;;20.11;52.25;102253.28;5080828;28;20169;-57
2022/07/02 07:24:31;;;;;;;1.88;0.70;;;;;;;20.12;50.80;102255.03;5081344;28;20042;-52
2022/07/02 07:26:59;;;;;;;1.50;0.63;;;;;;;20.18;51.69;102262.94;5084307;28;20119;-53
2022/07/02 07:29:24;;;;;;;1.83;0.70;;;;;;;20.20;53.15;102260.34;5087291;28;20028;-52
2022/07/02 07:31:49;;;;;;;2.88;0.65;;;;;;;20.25;50.23;102256.91;5082968;28;20028;-53
2022/07/02 07:34:15;;;;;;;2.58;0.80;;;;;;;20.25;50.84;102254.31;5087618;28;20541;-53
2022/07/02 07:36:40;;;;;;;3.08;0.75;;;;;;;20.31;50.25;102251.75;5083324;28;20083;-54
2022/07/02 07:39:06;;;;;;;2.42;0.60;;;;;;;20.31;49.77;102248.28;5085139;28;20024;-53
2022/07/02 07:41:32;;;;;;;2.50;0.70;;;;;;;20.40;51.62;102256.22;5084577;28;20488;-53
2022/07/02 07:43:59;;;;;;;1.88;0.60;;;;;;;20.49;51.02;102250.22;5085915;28;20484;-53
2022/07/02 07:46:24;;;;;;;3.42;1.00;;;;;;;20.57;50.36;102254.66;5079449;28;20035;-52
2022/07/02 07:48:50;;;;;;;2.58;0.70;;;;;;;20.68;50.26;102252.13;5084102;28;20028;-54
2022/07/02 07:51:16;;;;;;;2.08;0.60;;;;;;;20.69;50.57;102255.59;5085741;28;20031;-52
2022/07/02 07:53:43;;;;;;;1.90;0.73;;;;;;;20.77;51.75;102253.94;5083074;28;20047;-51
2022/07/02 07:56:09;;;;;;;4.60;0.93;;;;;;;20.82;51.03;102255.75;5082089;28;20043;-52
2022/07/02 07:58:35;;;;;;;1.38;0.68;;;;;;;20.84;50.38;102254.00;5082448;28;20040;-54
2022/07/02 08:01:00;;;;;;;1.90;0.65;;;;;;;20.95;50.40;102246.25;5083512;28;20055;-53
2022/07/02 08:03:26;;;;;;;4.40;1.27;;;;;;;21.01;51.23;102248.91;5089855;28;20063;-53
2022/07/02 08:05:53;;;;;;;4.60;0.80;;;;;;;21.03;50.38;102241.06;5084764;28;20028;-52
2022/07/02 08:08:20;;;;;;;3.60;0.75;;;;;;;21.07;49.54;102246.34;5089106;28;20373;-53
2022/07/02 08:10:46;;;;;;;2.35;0.60;;;;;;;21.24;51.24;102237.72;5080929;28;20027;-54
2022/07/02 08:13:11;;;;;;;3.00;0.80;;;;;;;21.27;49.65;102248.19;5081466;28;20032;-53
2022/07/02 08:15:36;;;;;;;3.42;0.80;;;;;;;21.39;51.58;102240.44;5086518;28;20032;-52
2022/07/02 08:18:02;;;;;;;4.05;1.13;;;;;;;21.39;51.56;102241.31;5082758;28;20042;-54
2022/07/02 08:20:27;;;;;;;3.47;0.90;;;;;;;21.50;51.71;102240.50;5099377;28;20036;-53
2022/07/02 08:22:52;;;;;;;4.45;0.90;;;;;;;21.66;50.53;102242.31;5104967;28;20035;-53
2022/07/02 08:25:18;;;;;;;4.95;1.10;;;;;;;21.58;48.71;102236.16;5088956;28;20043;-53
2022/07/02 08:27:44;;;;;;;3.05;0.80;;;;;;;21.69;50.27;102239.72;5106468;28;20468;-51
2022/07/02 08:30:11;;;;;;;2.75;0.93;;;;;;;21.77;49.06;102230.13;5110025;27;20023;-54
2022/07/02 08:32:37;;;;;;;2.72;0.70;;;;;;;21.84;49.93;102229.31;5105004;28;20027;-53
2022/07/02 08:35:03;;;;;;;4.10;0.80;;;;;;;21.95;48.84;102224.06;5108104;28;20027;-53
2022/07/02 08:37:29;;;;;;;2.72;0.60;;;;;;;21.98;49.74;102225.84;5107843;28;20023;-53
2022/07/02 08:39:55;;;;;;;4.22;0.80;;;;;;;22.00;47.48;102227.59;5100862;28;20468;-52
2022/07/02 08:42:30;;;;;;;2.50;0.70;;;;;;;22.08;48.26;102219.72;5103586;28;20418;-54
2022/07/02 08:45:03;;;;;;;2.53;0.70;;;;;;;22.14;50.00;102227.63;5102167;28;20035;-52
2022/07/02 08:47:29;;;;;;;3.03;0.80;;;;;;;22.19;47.63;102216.28;5106838;28;20365;-54
2022/07/02 08:49:57;;;;;;;2.58;0.70;;;;;;;22.12;47.24;102219.78;5104628;28;20065;-53
2022/07/02 08:52:25;;;;;;;3.58;0.77;;;;;;;22.26;47.64;102217.19;5104715;28;20483;-54
2022/07/02 08:54:52;;;;;;;3.10;0.63;;;;;;;22.32;46.06;102224.16;5108143;28;20027;-52
2022/07/02 08:57:19;;;;;;;3.88;0.93;;;;;;;22.36;48.73;102213.69;5102549;28;20547;-57
2022/07/02 08:59:45;;;;;;;4.20;1.00;;;;;;;22.36;47.31;102207.59;5104890;28;20471;-55
2022/07/02 09:02:13;;;;;;;2.83;0.70;;;;;;;22.44;46.84;102211.94;5100172;28;20049;-54
2022/07/02 09:04:45;;;;;;;4.17;0.60;;;;;;;22.52;47.18;102205.84;5105146;27;20115;-54
2022/07/02 09:07:13;;;;;;;4.68;0.70;;;;;;;22.51;46.64;102206.69;5104340;28;20292;-53
2022/07/02 09:09:41;;;;;;;4.45;0.80;;;;;;;22.55;46.24;102206.72;5105047;28;20474;-54
2022/07/02 09:12:11;;;;;;;2.33;0.70;;;;;;;22.56;47.12;102205.84;5102550;28;20020;-53
2022/07/02 09:14:37;;;;;;;3.08;0.75;;;;;;;22.64;46.17;102204.09;5104046;28;20038;-54
2022/07/02 09:17:05;;;;;;;2.97;0.80;;;;;;;22.61;46.25;102195.34;5097438;28;20040;-55
2022/07/02 09:19:31;;;;;;;3.83;0.90;;;;;;;22.67;47.24;102196.22;5104499;28;20438;-53
2022/07/02 09:21:56;;;;;;;2.13;0.70;;;;;;;22.70;46.41;102196.22;5098476;28;20039;-52
2022/07/02 09:24:39;;;;;;;5.63;1.00;;;;;;;22.70;46.22;102198.84;5102052;28;20044;-52
2022/07/02 09:27:07;;;;;;;4.90;0.90;;;;;;;22.67;45.70;102192.72;5102310;27;20110;-54
2022/07/02 09:29:49;;;;;;;5.90;1.23;;;;;;;22.74;46.27;102192.72;5103026;28;20057;-57
2022/07/02 09:32:16;;;;;;;4.53;0.88;;;;;;;22.79;46.08;102189.22;5101618;28;20028;-53
2022/07/02 09:34:47;;;;;;;3.53;0.98;;;;;;;22.81;46.20;102190.94;5087870;28;20365;-53
2022/07/02 09:37:16;;;;;;;3.55;0.98;;;;;;;;;;5099087;28;20636;-53
2022/07/02 09:39:43;;;;;;;3.88;0.90;;;;;;;22.93;46.78;102176.97;5101331;27;20076;-52
2022/07/02 09:42:09;;;;;;;2.35;0.73;;;;;;;22.84;44.65;102183.09;5101606;28;20123;-53
2022/07/02 09:44:35;;;;;;;3.05;0.80;;;;;;;22.96;47.52;102176.97;5104041;27;20040;-52
2022/07/02 09:47:00;;;;;;;3.15;0.80;;;;;;;23.05;48.25;102176.06;5104067;27;20024;-53
2022/07/02 09:49:25;;;;;;;4.80;0.95;;;;;;;23.04;47.36;102163.84;5103114;28;20020;-54
2022/07/02 09:51:53;;;;;;;3.83;0.90;;;;;;;23.05;46.12;102160.31;5104816;27;20411;-53
2022/07/02 09:54:23;;;;;;;2.92;0.80;;;;;;;23.04;46.84;102158.59;5099657;28;20438;-53
2022/07/02 09:56:57;;;;;;;4.45;1.00;;;;;;;23.09;46.45;102162.06;5103605;27;20088;-53
2022/07/02 09:59:23;;;;;;;3.55;1.00;;;;;;;22.94;46.09;102155.13;5099923;28;20636;-53
2022/07/02 10:01:49;;;;;;;4.10;0.98;;;;;;;23.05;47.49;102153.34;5100222;28;20043;-53
2022/07/02 10:04:15;;;;;;;5.38;1.00;;;;;;;23.14;49.29;102155.06;5102893;27;20495;-53
2022/07/02 10:06:43;;;;;;;5.72;0.90;;;;;;;23.15;47.20;102162.94;5100973;28;20036;-52
2022/07/02 10:09:11;;;;;;;1.98;0.73;;;;;;;23.23;45.84;102152.41;5081933;28;20019;-53
2022/07/02 10:11:37;;;;;;;2.78;0.70;;;;;;;23.30;47.18;102164.63;5081392;28;20027;-53
2022/07/02 10:14:04;;;;;;;3.42;0.85;;;;;;;23.37;46.03;102153.22;5101743;28;20024;-52
2022/07/02 10:16:30;;;;;;;3.78;0.93;;;;;;;23.42;46.66;102151.47;5097708;27;20058;-59
2022/07/02 10:18:59;;;;;;;2.95;0.88;;;;;;;23.47;45.86;102141.78;5101021;28;20071;-54
2022/07/02 10:21:25;;;;;;;3.00;0.80;;;;;;;23.58;45.40;102144.34;5102394;28;20036;-52
2022/07/02 10:23:50;;;;;;;4.50;0.82;;;;;;;23.65;47.34;102148.72;5101039;28;20505;-49
2022/07/02 10:26:16;;;;;;;6.35;0.90;;;;;;;23.54;46.42;102140.91;5083263;28;20035;-51
2022/07/02 10:28:43;;;;;;;1.98;0.73;;;;;;;23.52;46.26;102137.38;5097983;28;20097;-49
2022/07/02 10:31:15;;;;;;;1.27;0.65;;;;;;;23.45;45.00;102140.06;5099832;28;20115;-52
2022/07/02 10:34:05;;;;;;;5.13;0.80;;;;;;;23.35;43.88;102136.59;5091457;28;20019;-50
2022/07/02 10:36:32;;;;;;;4.72;0.70;;;;;;;23.25;46.12;102130.53;5100190;28;20467;-52
2022/07/02 10:39:00;;;;;;;5.82;0.80;;;;;;;23.32;45.01;102134.00;5100922;28;20027;-52
2022/07/02 10:41:28;;;;;;;2.27;0.90;;;;;;;23.34;44.82;102136.59;5101145;28;20023;-50
2022/07/02 10:43:56;;;;;;;2.33;0.67;;;;;;;23.39;45.60;102124.34;5100287;28;20035;-45
2022/07/02 10:46:23;;;;;;;2.13;0.70;;;;;;;23.43;45.26;102140.06;5103484;28;20043;-48
2022/07/02 10:48:54;;;;;;;2.80;0.87;;;;;;;23.45;44.51;102130.44;5099657;28;20027;-46
2022/07/02 10:51:22;;;;;;;3.30;0.57;;;;;;;23.41;44.22;102133.06;5101685;28;20528;-46
2022/07/02 10:53:52;;;;;;;;;;;;;;;23.52;45.72;102139.16;5101709;28;20024;-45
2022/07/02 10:56:18;;;;;;;4.78;0.70;;;;;;;23.40;44.20;102129.56;5100814;28;19923;-46
2022/07/02 10:58:43;;;;;;;3.60;0.77;;;;;;;23.45;45.37;102127.81;5100121;28;20364;-46
2022/07/02 11:01:10;;;;;;;4.25;1.23;;;;;;;23.55;44.98;102120.75;5103178;27;20502;-45
2022/07/02 11:03:36;;;;;;;1.83;0.60;;;;;;;23.62;45.14;102119.00;5101896;28;20366;-47
2022/07/02 11:06:06;;;;;;;2.83;0.60;;;;;;;23.67;46.37;102120.72;5099616;28;20047;-47
2022/07/02 11:08:44;;;;;;;2.30;0.70;;;;;;;23.61;44.88;102122.47;5097217;28;20031;-44
2022/07/02 11:11:11;;;;;;;4.47;0.80;;;;;;;23.53;45.48;102123.38;5098472;28;20023;-45
2022/07/02 11:14:00;;;;;;;3.55;0.80;;;;;;;23.53;45.68;102126.00;5102074;28;20038;-44
2022/07/02 11:16:27;;;;;;;1.60;0.63;;;;;;;23.44;45.67;102115.56;5102143;28;20450;-44
2022/07/02 11:18:54;;;;;;;4.20;0.80;;;;;;;23.44;44.62;102125.19;5101485;28;20051;-47
2022/07/02 11:21:21;;;;;;;1.50;0.57;;;;;;;23.36;44.08;102125.25;5101474;28;20104;-46
2022/07/02 11:23:48;;;;;;;4.05;0.70;;;;;;;23.36;42.69;102124.34;5099433;28;20039;-48
2022/07/02 11:26:18;;;;;;;2.88;0.52;;;;;;;23.44;45.23;102112.06;5101661;28;20032;-47
2022/07/02 11:28:44;;;;;;;3.38;0.60;;;;;;;23.45;45.13;102105.94;5101226;28;20034;-48